createdAt,value
2018-03-22T00:02:12.779Z,69.60
2018-03-22T00:04:41.111Z,69.64
2018-03-22T00:07:09.465Z,69.70
2018-03-22T00:09:37.795Z,69.66
2018-03-22T00:12:06.150Z,69.80
2018-03-22T00:14:34.484Z,70.02
2018-03-22T00:17:02.827Z,70.12
2018-03-22T00:19:31.162Z,70.03
2018-03-22T00:21:59.511Z,69.62
2018-03-22T00:24:27.838Z,69.61
2018-03-22T00:26:56.191Z,69.67
2018-03-22T00:29:24.524Z,69.71
2018-03-22T00:31:52.875Z,69.50
2018-03-22T00:34:21.203Z,69.50
2018-03-22T00:36:49.550Z,69.58
2018-03-22T00:39:17.889Z,69.52
2018-03-22T00:41:46.217Z,69.53
2018-03-22T00:44:14.547Z,69.77
2018-03-22T00:46:42.892Z,70.06
2018-03-22T00:49:11.217Z,69.97
2018-03-22T00:51:39.566Z,69.98
2018-03-22T00:54:07.893Z,69.85
2018-03-22T00:56:36.237Z,69.87
2018-03-22T00:59:04.570Z,69.87
2018-03-22T01:01:32.926Z,69.88
2018-03-22T01:04:01.254Z,69.61
2018-03-22T01:06:29.606Z,69.54
2018-03-22T01:08:57.931Z,69.51
2018-03-22T01:11:26.282Z,69.68
2018-03-22T01:13:54.610Z,69.62
2018-03-22T01:16:22.961Z,69.28
2018-03-22T01:18:51.281Z,69.12
2018-03-22T01:21:19.630Z,68.89
2018-03-22T01:23:47.960Z,69.17
2018-03-22T01:26:16.309Z,69.05
2018-03-22T01:28:44.639Z,68.85
2018-03-22T01:31:12.979Z,68.89
2018-03-22T01:33:41.306Z,68.73
2018-03-22T01:36:09.658Z,68.70
2018-03-22T01:38:37.987Z,68.54
2018-03-22T01:41:06.330Z,68.44
2018-03-22T01:43:34.653Z,68.18
2018-03-22T01:46:03.010Z,67.51
2018-03-22T01:48:31.340Z,66.85
2018-03-22T01:50:59.663Z,67.19
2018-03-22T01:53:28.010Z,67.89
2018-03-22T01:55:56.338Z,68.65
2018-03-22T01:58:24.685Z,69.57
2018-03-22T02:00:53.014Z,70.73
2018-03-22T02:03:21.362Z,70.90
2018-03-22T02:05:49.686Z,71.02
2018-03-22T02:08:18.038Z,71.24
2018-03-22T02:10:46.358Z,71.59
2018-03-22T02:13:14.707Z,72.02
2018-03-22T02:15:43.034Z,72.31
2018-03-22T02:18:11.386Z,72.79
2018-03-22T02:20:39.718Z,73.00
2018-03-22T02:23:08.067Z,73.07
2018-03-22T02:25:36.390Z,73.68
2018-03-22T02:28:04.740Z,74.39
2018-03-22T02:30:33.062Z,74.77
2018-03-22T02:33:01.411Z,75.10
2018-03-22T02:35:29.744Z,75.22
2018-03-22T02:37:58.084Z,75.75
2018-03-22T02:40:26.410Z,75.79
2018-03-22T02:42:54.759Z,76.36
2018-03-22T02:45:23.087Z,76.98
2018-03-22T02:47:51.438Z,77.57
2018-03-22T02:50:19.768Z,78.17
2018-03-22T02:52:48.118Z,78.71
2018-03-22T02:55:16.456Z,79.41
2018-03-22T02:57:44.803Z,79.88
2018-03-22T03:00:13.152Z,79.85
2018-03-22T03:02:41.483Z,80.20
2018-03-22T03:05:09.814Z,80.77
2018-03-22T03:07:38.163Z,81.15
2018-03-22T03:10:06.490Z,81.20
2018-03-22T03:12:34.838Z,81.27
2018-03-22T03:15:03.166Z,81.39
2018-03-22T03:17:31.513Z,81.45
2018-03-22T03:19:59.837Z,81.56
2018-03-22T03:22:28.190Z,81.67
2018-03-22T03:24:56.510Z,81.53
2018-03-22T03:27:24.863Z,81.59
2018-03-22T03:29:53.186Z,81.46
2018-03-22T03:32:21.534Z,81.40
2018-03-22T03:34:49.857Z,81.38
2018-03-22T03:37:18.207Z,81.29
2018-03-22T03:39:46.533Z,81.09
2018-03-22T03:42:14.885Z,81.01
2018-03-22T03:44:43.209Z,81.00
2018-03-22T03:47:11.557Z,80.79
2018-03-22T03:49:39.886Z,80.55
2018-03-22T03:52:08.214Z,80.28
2018-03-22T03:54:36.562Z,80.26
2018-03-22T03:57:04.891Z,80.13
2018-03-22T03:59:33.240Z,80.09
2018-03-22T04:02:01.563Z,80.01
2018-03-22T04:04:29.914Z,80.04
2018-03-22T04:06:58.250Z,80.13
2018-03-22T04:09:26.594Z,79.97
2018-03-22T04:11:54.924Z,79.79
2018-03-22T04:14:23.270Z,79.72
2018-03-22T04:16:51.593Z,79.90
2018-03-22T04:19:19.947Z,80.11
2018-03-22T04:21:48.269Z,80.13
2018-03-22T04:24:16.618Z,80.18
2018-03-22T04:26:44.946Z,80.21
2018-03-22T04:29:13.290Z,80.14
2018-03-22T04:31:41.622Z,80.14
2018-03-22T04:34:09.965Z,80.43
2018-03-22T04:36:38.295Z,80.64
2018-03-22T04:39:06.641Z,81.09
2018-03-22T04:41:34.966Z,81.38
2018-03-22T04:44:03.318Z,81.76
2018-03-22T04:46:31.642Z,81.98
2018-03-22T04:48:59.986Z,82.22
2018-03-22T04:51:28.310Z,82.27
2018-03-22T04:53:56.657Z,82.22
2018-03-22T04:56:24.986Z,82.21
2018-03-22T04:58:53.334Z,82.52
2018-03-22T05:01:21.662Z,82.65
2018-03-22T05:03:50.014Z,82.80
2018-03-22T05:06:18.337Z,82.55
2018-03-22T05:08:46.686Z,82.26
2018-03-22T05:11:15.010Z,82.16
2018-03-22T05:13:43.353Z,82.15
2018-03-22T05:16:11.677Z,82.11
2018-03-22T05:18:40.063Z,82.29
2018-03-22T05:21:08.365Z,82.33
2018-03-22T05:23:36.709Z,82.29
2018-03-22T05:26:05.034Z,82.18
2018-03-22T05:28:33.382Z,81.86
2018-03-22T05:31:01.706Z,81.69
2018-03-22T05:33:30.053Z,81.64
2018-03-22T05:35:58.377Z,81.43
2018-03-22T05:38:26.735Z,81.61
2018-03-22T05:40:55.069Z,81.86
2018-03-22T05:43:23.458Z,82.06
2018-03-22T05:45:51.738Z,82.33
2018-03-22T05:48:20.089Z,82.85
2018-03-22T05:50:48.413Z,83.59
2018-03-22T05:53:16.762Z,84.00
2018-03-22T05:55:45.110Z,84.70
2018-03-22T05:58:13.438Z,85.17
2018-03-22T06:00:41.785Z,85.35
2018-03-22T06:03:10.153Z,85.28
2018-03-22T06:05:38.457Z,85.30
2018-03-22T06:08:06.786Z,85.42
2018-03-22T06:10:35.139Z,85.40
2018-03-22T06:13:03.469Z,85.40
2018-03-22T06:15:31.814Z,85.51
2018-03-22T06:18:00.138Z,85.54
2018-03-22T06:20:28.489Z,85.76
2018-03-22T06:22:56.818Z,86.06
2018-03-22T06:25:25.171Z,86.17
2018-03-22T06:27:53.497Z,86.07
2018-03-22T06:30:21.846Z,86.14
2018-03-22T06:32:50.244Z,86.18
2018-03-22T06:35:18.526Z,86.08
2018-03-22T06:37:46.851Z,86.05
2018-03-22T06:40:15.199Z,85.91
2018-03-22T06:42:43.527Z,85.75
2018-03-22T06:45:11.878Z,85.64
2018-03-22T06:47:40.213Z,85.80
2018-03-22T06:50:08.554Z,85.98
2018-03-22T06:52:36.887Z,86.13
2018-03-22T06:55:05.234Z,86.25
2018-03-22T06:57:33.562Z,86.16
2018-03-22T07:00:01.910Z,86.03
2018-03-22T07:02:30.235Z,85.78
2018-03-22T07:04:58.586Z,86.05
2018-03-22T07:07:26.922Z,86.43
2018-03-22T07:09:55.269Z,86.82
2018-03-22T07:12:23.603Z,86.97
2018-03-22T07:14:51.951Z,87.02
2018-03-22T07:17:20.284Z,87.11
2018-03-22T07:19:48.689Z,87.31
2018-03-22T07:22:16.962Z,87.46
2018-03-22T07:24:45.994Z,87.31
2018-03-22T07:27:14.323Z,87.11
2018-03-22T07:29:42.678Z,87.10
2018-03-22T07:32:11.006Z,87.13
2018-03-22T07:34:39.357Z,87.28
2018-03-22T07:37:07.704Z,87.13
2018-03-22T07:39:36.059Z,86.76
2018-03-22T07:42:04.394Z,86.59
2018-03-22T07:44:38.438Z,86.45
2018-03-22T07:47:07.750Z,86.27
2018-03-22T07:49:36.106Z,86.27
2018-03-22T07:52:04.438Z,86.01
2018-03-22T07:54:32.785Z,85.78
2018-03-22T07:57:01.126Z,85.74
2018-03-22T07:59:29.450Z,85.41
2018-03-22T08:01:57.814Z,85.36
2018-03-22T08:04:26.134Z,85.42
2018-03-22T08:06:54.490Z,85.22
2018-03-22T08:09:22.833Z,85.32
2018-03-22T08:11:51.182Z,85.44
2018-03-22T08:14:19.505Z,86.00
2018-03-22T08:16:47.858Z,86.29
2018-03-22T08:19:16.189Z,85.92
2018-03-22T08:21:44.546Z,85.61
2018-03-22T08:24:12.879Z,85.31
2018-03-22T08:26:41.234Z,85.50
2018-03-22T08:29:09.566Z,85.35
2018-03-22T08:31:37.978Z,85.15
2018-03-22T08:34:06.251Z,85.31
2018-03-22T08:36:34.594Z,85.41
2018-03-22T08:39:02.930Z,86.27
2018-03-22T08:41:31.295Z,85.48
2018-03-22T08:43:59.624Z,84.35
2018-03-22T08:46:28.594Z,84.42
2018-03-22T08:48:56.921Z,84.66
2018-03-22T08:51:25.273Z,85.25
2018-03-22T08:53:53.604Z,85.07
2018-03-22T08:56:21.958Z,84.99
2018-03-22T08:58:50.285Z,84.92
2018-03-22T09:01:18.659Z,84.95
2018-03-22T09:03:46.981Z,85.02
2018-03-22T09:06:16.114Z,85.22
2018-03-22T09:08:44.455Z,85.11
2018-03-22T09:11:12.803Z,85.07
2018-03-22T09:13:41.136Z,84.89
2018-03-22T09:16:09.481Z,85.01
2018-03-22T09:18:37.814Z,84.93
2018-03-22T09:21:06.170Z,84.99
2018-03-22T09:23:34.497Z,84.91
2018-03-22T09:26:02.850Z,84.92
2018-03-22T09:28:31.177Z,84.89
2018-03-22T09:30:59.530Z,85.04
2018-03-22T09:33:27.862Z,85.17
2018-03-22T09:35:56.209Z,85.31
2018-03-22T09:38:24.546Z,85.60
2018-03-22T09:40:52.898Z,85.78
2018-03-22T09:43:21.230Z,85.86
2018-03-22T09:45:49.577Z,85.29
2018-03-22T09:48:17.919Z,85.29
2018-03-22T09:50:46.272Z,84.89
2018-03-22T09:53:14.598Z,84.97
2018-03-22T09:55:42.946Z,84.80
2018-03-22T09:58:11.277Z,84.51
2018-03-22T10:00:39.636Z,84.76
2018-03-22T10:03:08.382Z,84.45
2018-03-22T10:05:36.714Z,84.50
2018-03-22T10:08:05.070Z,84.37
2018-03-22T10:10:33.403Z,84.50
2018-03-22T10:13:01.763Z,84.81
2018-03-22T10:15:30.090Z,84.70
2018-03-22T10:17:58.450Z,84.52
2018-03-22T10:20:26.778Z,84.14
2018-03-22T10:22:55.135Z,84.06
2018-03-22T10:25:23.471Z,84.40
2018-03-22T10:27:51.830Z,84.53
2018-03-22T10:30:20.169Z,84.42
2018-03-22T10:32:48.669Z,84.24
2018-03-22T10:35:17.003Z,84.10
2018-03-22T10:37:45.358Z,83.83
2018-03-22T10:40:13.689Z,83.81
2018-03-22T10:42:42.682Z,83.46
2018-03-22T10:45:11.018Z,83.54
2018-03-22T10:47:39.366Z,83.52
2018-03-22T10:50:07.700Z,83.50
2018-03-22T10:52:36.065Z,83.62
2018-03-22T10:55:04.399Z,83.85
2018-03-22T10:57:32.749Z,83.66
2018-03-22T11:00:01.142Z,83.48
2018-03-22T11:02:35.043Z,83.27
2018-03-22T11:05:03.517Z,83.13
2018-03-22T11:07:32.114Z,82.74
2018-03-22T11:10:00.468Z,82.45
2018-03-22T11:12:28.831Z,82.65
2018-03-22T11:14:57.178Z,82.36
2018-03-22T11:17:25.531Z,82.75
2018-03-22T11:19:53.866Z,82.74
2018-03-22T11:22:22.280Z,82.31
2018-03-22T11:24:50.642Z,82.08
2018-03-22T11:27:19.028Z,82.25
2018-03-22T11:29:47.359Z,81.71
2018-03-22T11:32:16.041Z,81.96
2018-03-22T11:34:44.783Z,81.71
2018-03-22T11:37:13.499Z,81.84
2018-03-22T11:39:42.007Z,81.72
2018-03-22T11:42:10.625Z,81.55
2018-03-22T11:44:39.222Z,81.79
2018-03-22T11:47:07.826Z,81.68
2018-03-22T11:49:36.182Z,81.54
2018-03-22T11:52:04.562Z,81.52
2018-03-22T11:54:32.899Z,81.88
2018-03-22T11:57:01.253Z,82.65
2018-03-22T11:59:29.587Z,82.99
2018-03-22T12:01:57.951Z,83.20
2018-03-22T12:04:26.270Z,83.44
2018-03-22T12:06:54.639Z,83.83
2018-03-22T12:09:22.996Z,84.05
2018-03-22T12:11:51.314Z,84.21
2018-03-22T12:14:19.667Z,84.39
2018-03-22T12:16:48.010Z,84.60
2018-03-22T12:19:16.490Z,84.77
2018-03-22T12:21:44.877Z,84.75
2018-03-22T12:24:13.184Z,84.82
2018-03-22T12:26:41.515Z,85.13
2018-03-22T12:29:09.871Z,85.43
2018-03-22T12:31:38.203Z,85.54
2018-03-22T12:34:06.593Z,85.99
2018-03-22T12:36:35.878Z,85.84
2018-03-22T12:39:04.239Z,85.74
2018-03-22T12:41:32.578Z,85.78
2018-03-22T12:44:00.930Z,85.79
2018-03-22T12:46:30.195Z,85.70
2018-03-22T12:48:58.554Z,85.73
2018-03-22T12:51:26.908Z,85.53
2018-03-22T12:53:55.263Z,85.56
2018-03-22T12:56:24.527Z,85.76
2018-03-22T12:58:52.887Z,85.95
2018-03-22T13:01:21.213Z,86.03
2018-03-22T13:03:49.583Z,85.89
2018-03-22T13:06:17.910Z,85.74
2018-03-22T13:08:46.258Z,85.49
2018-03-22T13:11:14.606Z,85.38
2018-03-22T13:13:42.958Z,85.38
2018-03-22T13:16:11.294Z,85.34
2018-03-22T13:18:39.701Z,85.30
2018-03-22T13:21:08.008Z,85.13
2018-03-22T13:23:36.363Z,83.57
2018-03-22T13:26:04.690Z,84.31
2018-03-22T13:28:33.049Z,84.37
2018-03-22T13:31:01.403Z,84.42
2018-03-22T13:33:29.759Z,84.74
2018-03-22T13:35:58.096Z,85.04
2018-03-22T13:38:26.466Z,84.81
2018-03-22T13:40:54.795Z,84.88
2018-03-22T13:43:23.160Z,85.03
2018-03-22T13:45:51.482Z,85.17
2018-03-22T13:48:19.842Z,84.82
2018-03-22T13:50:48.184Z,85.01
2018-03-22T13:53:16.544Z,84.95
2018-03-22T13:55:44.884Z,85.43
2018-03-22T13:58:13.239Z,85.71
2018-03-22T14:00:41.576Z,85.66
2018-03-22T14:03:09.927Z,85.78
2018-03-22T14:05:38.266Z,85.66
2018-03-22T14:08:06.614Z,85.89
2018-03-22T14:10:34.951Z,86.07
2018-03-22T14:13:03.314Z,85.94
2018-03-22T14:15:31.646Z,85.90
2018-03-22T14:17:59.974Z,86.00
2018-03-22T14:20:28.352Z,85.83
2018-03-22T14:22:56.700Z,86.00
2018-03-22T14:25:25.146Z,85.79
2018-03-22T14:27:53.482Z,86.00
2018-03-22T14:30:21.858Z,86.07
2018-03-22T14:32:50.198Z,86.35
2018-03-22T14:35:18.824Z,86.37
2018-03-22T14:37:47.275Z,86.24
2018-03-22T14:40:15.635Z,86.31
2018-03-22T14:42:44.031Z,86.62
2018-03-22T14:45:12.410Z,86.83
2018-03-22T14:47:40.753Z,86.79
2018-03-22T14:50:09.102Z,86.96
2018-03-22T14:52:37.458Z,87.11
2018-03-22T14:55:05.896Z,87.11
2018-03-22T14:57:34.247Z,87.04
2018-03-22T15:00:02.618Z,86.96
2018-03-22T15:02:31.000Z,86.56
2018-03-22T15:04:59.386Z,86.53
2018-03-22T15:07:27.742Z,86.37
2018-03-22T15:09:56.094Z,86.28
2018-03-22T15:12:24.531Z,85.97
2018-03-22T15:14:53.027Z,85.54
2018-03-22T15:17:21.571Z,84.97
2018-03-22T15:19:49.925Z,85.14
2018-03-22T15:22:18.254Z,84.46
2018-03-22T15:24:46.626Z,84.44
2018-03-22T15:27:14.986Z,84.41
2018-03-22T15:29:43.360Z,84.10
2018-03-22T15:32:11.814Z,83.59
2018-03-22T15:34:40.160Z,83.71
2018-03-22T15:37:09.354Z,83.72
2018-03-22T15:39:37.702Z,83.60
2018-03-22T15:42:06.031Z,83.32
2018-03-22T15:44:34.404Z,83.41
2018-03-22T15:47:02.891Z,83.38
2018-03-22T15:49:31.240Z,83.01
2018-03-22T15:51:59.571Z,83.56
2018-03-22T15:54:27.915Z,83.41
2018-03-22T15:56:56.242Z,83.28
2018-03-22T15:59:24.583Z,83.06
2018-03-22T16:01:52.906Z,82.83
2018-03-22T16:04:21.255Z,82.44
2018-03-22T16:06:50.530Z,82.54
2018-03-22T16:09:18.891Z,82.37
2018-03-22T16:11:47.225Z,82.06
2018-03-22T16:14:15.566Z,82.01
2018-03-22T16:16:43.903Z,81.78
2018-03-22T16:19:12.226Z,81.53
2018-03-22T16:21:40.590Z,81.58
2018-03-22T16:24:08.946Z,81.61
2018-03-22T16:26:38.235Z,81.41
2018-03-22T16:29:06.917Z,81.31
2018-03-22T16:31:35.268Z,81.25
2018-03-22T16:34:03.639Z,81.37
2018-03-22T16:36:32.233Z,81.04
2018-03-22T16:39:00.554Z,81.03
2018-03-22T16:41:28.907Z,81.13
2018-03-22T16:43:57.242Z,80.95
2018-03-22T16:46:25.594Z,80.92
2018-03-22T16:48:53.917Z,81.08
2018-03-22T16:51:22.269Z,80.83
2018-03-22T16:53:50.586Z,80.48
2018-03-22T16:56:19.915Z,80.62
2018-03-22T16:58:48.246Z,80.62
2018-03-22T17:01:16.590Z,80.69
2018-03-22T17:03:44.914Z,80.60
2018-03-22T17:06:14.259Z,80.22
2018-03-22T17:08:42.598Z,80.17
2018-03-22T17:11:11.054Z,80.23
2018-03-22T17:13:39.419Z,79.90
2018-03-22T17:16:07.733Z,80.10
2018-03-22T17:18:36.053Z,80.15
2018-03-22T17:21:04.391Z,80.09
2018-03-22T17:23:32.735Z,80.04
2018-03-22T17:26:01.078Z,80.11
2018-03-22T17:28:29.402Z,80.02
2018-03-22T17:30:57.791Z,79.99
2018-03-22T17:33:26.338Z,79.96
2018-03-22T17:35:54.690Z,79.88
2018-03-22T17:38:23.014Z,79.71
2018-03-22T17:40:51.363Z,79.62
2018-03-22T17:43:19.694Z,79.57
2018-03-22T17:45:48.062Z,79.58
2018-03-22T17:48:16.399Z,79.75
2018-03-22T17:50:44.751Z,79.86
2018-03-22T17:53:13.082Z,79.81
2018-03-22T17:55:42.286Z,80.10
2018-03-22T17:58:10.623Z,80.02
2018-03-22T18:00:38.970Z,79.99
2018-03-22T18:03:07.311Z,79.91
2018-03-22T18:05:35.654Z,79.79
2018-03-22T18:08:03.982Z,79.67
2018-03-22T18:10:36.786Z,79.62
2018-03-22T18:13:07.028Z,79.82
2018-03-22T18:15:35.391Z,77.64
2018-03-22T18:18:03.710Z,78.70
2018-03-22T18:20:32.054Z,79.60
2018-03-22T18:23:00.374Z,79.90
2018-03-22T18:25:28.734Z,79.81
2018-03-22T18:27:57.051Z,80.03
2018-03-22T18:30:25.374Z,80.13
2018-03-22T18:32:53.714Z,80.06
2018-03-22T18:35:22.108Z,80.26
2018-03-22T18:37:50.392Z,80.36
2018-03-22T18:40:18.719Z,80.50
2018-03-22T18:42:47.058Z,80.49
2018-03-22T18:45:15.378Z,80.62
2018-03-22T18:47:43.718Z,80.71
2018-03-22T18:50:12.046Z,80.98
2018-03-22T18:52:40.398Z,81.17
2018-03-22T18:55:08.727Z,81.41
2018-03-22T18:57:37.066Z,81.37
2018-03-22T19:00:05.411Z,81.39
2018-03-22T19:02:33.798Z,82.06
2018-03-22T19:05:02.162Z,82.31
2018-03-22T19:07:30.489Z,82.47
2018-03-22T19:09:58.818Z,82.62
2018-03-22T19:12:27.165Z,82.68
2018-03-22T19:14:55.493Z,82.85
2018-03-22T19:17:23.843Z,82.94
2018-03-22T19:19:52.175Z,82.93
2018-03-22T19:22:20.516Z,83.00
2018-03-22T19:24:48.838Z,83.33
2018-03-22T19:27:17.181Z,83.49
2018-03-22T19:29:45.515Z,83.55
2018-03-22T19:32:13.875Z,83.54
2018-03-22T19:34:42.206Z,83.53
2018-03-22T19:37:10.613Z,83.51
2018-03-22T19:39:38.888Z,83.51
2018-03-22T19:42:07.234Z,83.57
2018-03-22T19:44:35.565Z,83.52
2018-03-22T19:47:03.922Z,83.58
2018-03-22T19:49:32.255Z,83.49
2018-03-22T19:52:00.602Z,83.32
2018-03-22T19:54:28.938Z,83.18
2018-03-22T19:56:58.154Z,83.00
2018-03-22T19:59:26.490Z,82.90
2018-03-22T20:01:54.838Z,82.90
2018-03-22T20:04:23.181Z,83.01
2018-03-22T20:06:51.535Z,83.32
2018-03-22T20:09:19.875Z,83.27
2018-03-22T20:11:48.222Z,83.14
2018-03-22T20:14:16.557Z,83.11
2018-03-22T20:16:44.907Z,83.14
2018-03-22T20:19:13.239Z,82.99
2018-03-22T20:21:41.599Z,82.98
2018-03-22T20:24:09.927Z,82.91
2018-03-22T20:26:39.235Z,82.89
2018-03-22T20:29:07.570Z,82.91
2018-03-22T20:31:35.897Z,82.74
2018-03-22T20:34:04.246Z,82.84
2018-03-22T20:36:32.588Z,82.79
2018-03-22T20:39:00.930Z,82.61
2018-03-22T20:41:29.254Z,82.59
2018-03-22T20:43:57.598Z,82.46
2018-03-22T20:46:25.931Z,82.21
2018-03-22T20:48:54.275Z,82.38
2018-03-22T20:51:22.606Z,82.46
2018-03-22T20:53:50.961Z,82.73
2018-03-22T20:56:19.295Z,82.84
2018-03-22T20:58:47.639Z,82.71
2018-03-22T21:01:15.970Z,82.32
2018-03-22T21:03:44.324Z,82.40
2018-03-22T21:06:13.635Z,82.37
2018-03-22T21:08:41.978Z,81.78
2018-03-22T21:11:10.306Z,81.28
2018-03-22T21:13:38.646Z,80.52
2018-03-22T21:16:07.111Z,80.33
2018-03-22T21:18:35.444Z,80.71
2018-03-22T21:21:03.770Z,80.56
2018-03-22T21:23:32.111Z,80.50
2018-03-22T21:26:00.421Z,80.29
2018-03-22T21:28:28.762Z,80.30
2018-03-22T21:30:57.106Z,80.54
2018-03-22T21:33:25.446Z,80.59
2018-03-22T21:35:54.438Z,80.68
2018-03-22T21:38:22.778Z,80.78
2018-03-22T21:40:51.094Z,80.90
2018-03-22T21:43:19.440Z,81.02
2018-03-22T21:45:47.867Z,80.83
2018-03-22T21:48:16.191Z,80.92
2018-03-22T21:50:49.962Z,80.48
2018-03-22T21:53:18.402Z,80.50
2018-03-22T21:55:46.725Z,80.40
2018-03-22T21:58:15.067Z,80.12
2018-03-22T22:00:43.391Z,79.99
2018-03-22T22:03:11.738Z,78.87
2018-03-22T22:05:40.056Z,78.58
2018-03-22T22:08:08.390Z,78.31
2018-03-22T22:10:36.706Z,77.90
2018-03-22T22:13:05.043Z,77.19
2018-03-22T22:15:33.366Z,76.00
2018-03-22T22:18:01.889Z,75.62
2018-03-22T22:20:30.206Z,76.16
2018-03-22T22:22:58.546Z,76.40
2018-03-22T22:25:26.870Z,75.06
2018-03-22T22:27:55.214Z,75.17
2018-03-22T22:30:23.531Z,75.24
2018-03-22T22:32:51.885Z,75.31
2018-03-22T22:35:20.207Z,75.27
2018-03-22T22:37:48.546Z,75.57
2018-03-22T22:40:16.895Z,75.77
2018-03-22T22:42:45.208Z,75.55
2018-03-22T22:45:13.550Z,75.32
2018-03-22T22:47:41.874Z,75.38
2018-03-22T22:50:10.202Z,75.20
2018-03-22T22:52:38.526Z,75.27
2018-03-22T22:55:06.861Z,75.28
2018-03-22T22:57:35.171Z,75.54
2018-03-22T23:00:03.503Z,75.50
2018-03-22T23:02:31.805Z,75.57
2018-03-22T23:05:00.134Z,75.54
2018-03-22T23:07:28.451Z,75.62
2018-03-22T23:09:56.779Z,75.86
2018-03-22T23:12:25.087Z,75.97
2018-03-22T23:14:53.410Z,75.90
2018-03-22T23:17:21.721Z,75.85
2018-03-22T23:19:50.056Z,75.86
2018-03-22T23:22:18.358Z,76.09
2018-03-22T23:24:46.689Z,76.24
2018-03-22T23:27:15.002Z,76.37
2018-03-22T23:29:43.329Z,76.28
2018-03-22T23:32:11.638Z,76.23
2018-03-22T23:34:39.970Z,76.42
2018-03-22T23:37:08.278Z,76.55
2018-03-22T23:39:36.606Z,76.65
2018-03-22T23:42:04.914Z,76.68
2018-03-22T23:44:33.250Z,76.61
2018-03-22T23:47:01.554Z,76.65
2018-03-22T23:49:29.886Z,76.71
2018-03-22T23:51:58.190Z,76.76
2018-03-22T23:54:26.517Z,76.72
2018-03-22T23:56:54.835Z,76.84
2018-03-22T23:59:23.168Z,76.80
